createdAt,value
2022-09-04T00:01:51.980Z,5.45
2022-09-04T00:04:28.798Z,2.30
2022-09-04T00:07:06.867Z,3.38
2022-09-04T00:09:43.406Z,2.40
2022-09-04T00:12:10.206Z,2.50
2022-09-04T00:14:43.072Z,3.50
2022-09-04T00:17:17.462Z,3.03
2022-09-04T00:19:49.675Z,2.83
2022-09-04T00:22:28.299Z,4.53
2022-09-04T00:25:03.352Z,3.92
2022-09-04T00:27:36.049Z,2.03
2022-09-04T00:30:06.742Z,3.25
2022-09-04T00:32:41.243Z,4.10
2022-09-04T00:35:13.891Z,2.25
2022-09-04T00:37:46.235Z,3.83
2022-09-04T00:40:20.445Z,2.40
2022-09-04T00:43:01.863Z,2.40
2022-09-04T00:45:40.237Z,2.35
2022-09-04T00:48:23.442Z,3.13
2022-09-04T00:51:12.701Z,4.32
2022-09-04T00:54:04.463Z,2.85
2022-09-04T00:56:55.192Z,3.97
2022-09-04T00:59:38.818Z,3.47
2022-09-04T01:02:20.556Z,3.83
2022-09-04T01:05:00.074Z,2.97
2022-09-04T01:07:43.718Z,2.50
2022-09-04T01:10:33.209Z,2.45
2022-09-04T01:13:07.911Z,3.15
2022-09-04T01:15:40.490Z,4.05
2022-09-04T01:18:12.280Z,1.98
2022-09-04T01:21:20.628Z,3.60
2022-09-04T01:24:07.880Z,2.40
2022-09-04T01:26:45.571Z,2.83
2022-09-04T01:29:23.548Z,3.75
2022-09-04T01:31:56.368Z,2.92
2022-09-04T01:34:35.389Z,2.78
2022-09-04T01:37:16.001Z,2.75
2022-09-04T01:39:46.591Z,3.80
2022-09-04T01:42:23.078Z,2.83
2022-09-04T01:44:49.871Z,3.03
2022-09-04T01:47:25.837Z,4.03
2022-09-04T01:49:58.153Z,3.15
2022-09-04T01:52:36.886Z,4.35
2022-09-04T01:55:13.611Z,3.33
2022-09-04T01:57:57.757Z,2.88
2022-09-04T02:00:25.213Z,3.55
2022-09-04T02:02:59.396Z,4.30
2022-09-04T02:05:36.753Z,3.30
2022-09-04T02:08:16.679Z,3.38
2022-09-04T02:10:50.410Z,3.22
2022-09-04T02:13:23.011Z,2.88
2022-09-04T02:16:04.838Z,3.28
2022-09-04T02:18:44.284Z,3.55
2022-09-04T02:21:20.239Z,2.88
2022-09-04T02:23:56.257Z,3.65
2022-09-04T02:26:29.236Z,4.60
2022-09-04T02:29:02.430Z,3.58
2022-09-04T02:31:36.626Z,3.88
2022-09-04T02:34:08.464Z,2.97
2022-09-04T02:36:42.994Z,3.50
2022-09-04T02:39:24.217Z,3.03
2022-09-04T02:41:59.303Z,2.80
2022-09-04T02:44:38.954Z,6.40
2022-09-04T02:47:13.989Z,3.95
2022-09-04T02:49:51.589Z,3.17
2022-09-04T02:52:31.548Z,3.65
2022-09-04T02:55:11.667Z,3.67
2022-09-04T02:57:51.116Z,3.42
2022-09-04T03:00:22.631Z,3.50
2022-09-04T03:02:55.650Z,3.42
2022-09-04T03:05:25.537Z,3.63
2022-09-04T03:07:59.238Z,3.42
2022-09-04T03:10:31.650Z,3.42
2022-09-04T03:13:05.723Z,5.63
2022-09-04T03:15:43.836Z,7.63
2022-09-04T03:18:19.575Z,4.97
2022-09-04T03:20:53.900Z,3.38
2022-09-04T03:23:30.458Z,5.18
2022-09-04T03:26:12.614Z,3.72
2022-09-04T03:31:28.873Z,3.78
2022-09-04T03:34:07.534Z,4.95
2022-09-04T03:36:43.898Z,4.72
2022-09-04T03:39:18.871Z,3.60
2022-09-04T03:41:54.581Z,3.22
2022-09-04T03:44:31.888Z,4.07
2022-09-04T03:47:09.966Z,5.00
2022-09-04T03:49:50.358Z,4.05
2022-09-04T03:52:26.014Z,4.30
2022-09-04T03:55:12.858Z,4.05
2022-09-04T03:58:04.419Z,3.60
2022-09-04T04:00:41.852Z,4.50
2022-09-04T04:03:27.515Z,4.00
2022-09-04T04:06:09.295Z,3.83
2022-09-04T04:08:58.951Z,4.28
2022-09-04T04:11:43.427Z,4.40
2022-09-04T04:14:26.251Z,3.58
2022-09-04T04:17:06.379Z,6.70
2022-09-04T04:20:02.744Z,5.68
2022-09-04T04:22:46.617Z,3.80
2022-09-04T04:25:33.027Z,4.57
2022-09-04T04:28:12.609Z,4.43
2022-09-04T04:30:48.152Z,4.10
2022-09-04T04:33:40.053Z,4.10
2022-09-04T04:36:16.279Z,4.32
2022-09-04T04:39:04.617Z,4.22
2022-09-04T04:41:41.162Z,4.95
2022-09-04T04:44:15.328Z,4.28
2022-09-04T04:47:02.120Z,3.75
2022-09-04T04:49:43.452Z,4.82
2022-09-04T04:52:27.252Z,4.22
2022-09-04T04:55:05.517Z,6.03
2022-09-04T04:57:44.387Z,4.32
2022-09-04T05:00:15.577Z,3.53
2022-09-04T05:02:51.951Z,5.67
2022-09-04T05:05:41.870Z,5.95
2022-09-04T05:08:20.999Z,4.03
2022-09-04T05:10:53.631Z,4.32
2022-09-04T05:13:25.929Z,6.65
2022-09-04T05:16:09.946Z,4.38
2022-09-04T05:18:45.144Z,6.20
2022-09-04T05:21:19.473Z,3.67
2022-09-04T05:23:55.593Z,4.00
2022-09-04T05:26:29.188Z,6.03
2022-09-04T05:29:01.136Z,4.18
2022-09-04T05:31:39.047Z,7.55
2022-09-04T05:34:12.307Z,6.10
2022-09-04T05:36:50.635Z,4.53
2022-09-04T05:39:28.085Z,4.38
2022-09-04T05:42:07.970Z,5.75
2022-09-04T05:44:53.595Z,4.63
2022-09-04T05:47:41.993Z,8.70
2022-09-04T05:50:36.766Z,5.07
2022-09-04T05:53:27.493Z,5.35
2022-09-04T05:56:25.768Z,4.55
2022-09-04T05:59:18.321Z,4.47
2022-09-04T06:02:27.274Z,5.72
2022-09-04T06:05:15.386Z,4.78
2022-09-04T06:08:00.461Z,4.68
2022-09-04T06:10:37.428Z,5.38
2022-09-04T06:13:28.777Z,5.82
2022-09-04T06:16:11.240Z,7.57
2022-09-04T06:18:56.561Z,4.22
2022-09-04T06:22:02.530Z,4.72
2022-09-04T06:25:04.457Z,5.38
2022-09-04T06:27:51.688Z,5.20
2022-09-04T06:30:19.930Z,4.43
2022-09-04T06:33:11.378Z,8.20
2022-09-04T06:36:19.435Z,11.23
2022-09-04T06:39:03.635Z,6.45
2022-09-04T06:41:43.484Z,4.45
2022-09-04T06:44:24.556Z,4.40
2022-09-04T06:47:02.794Z,4.50
2022-09-04T06:49:40.057Z,5.30
2022-09-04T06:52:19.118Z,4.18
2022-09-04T06:54:58.231Z,3.83
2022-09-04T06:57:43.380Z,4.15
2022-09-04T07:00:11.876Z,4.30
2022-09-04T07:03:11.442Z,4.30
2022-09-04T07:05:47.568Z,3.88
2022-09-04T07:08:26.560Z,5.40
2022-09-04T07:11:03.366Z,3.97
2022-09-04T07:13:58.486Z,4.45
2022-09-04T07:16:36.469Z,4.10
2022-09-04T07:19:48.562Z,4.55
2022-09-04T07:22:56.714Z,5.03
2022-09-04T07:25:27.449Z,4.40
2022-09-04T07:28:11.225Z,6.82
2022-09-04T07:30:44.081Z,5.32
2022-09-04T07:33:19.269Z,4.28
2022-09-04T07:35:53.950Z,5.43
2022-09-04T07:38:33.323Z,4.63
2022-09-04T07:41:05.485Z,4.25
2022-09-04T07:43:40.645Z,5.07
2022-09-04T07:46:22.158Z,4.25
2022-09-04T07:48:54.906Z,4.32
2022-09-04T07:51:27.093Z,5.63
2022-09-04T07:54:29.031Z,4.90
2022-09-04T07:57:20.197Z,4.13
2022-09-04T08:00:04.101Z,3.65
2022-09-04T08:03:25.163Z,4.75
2022-09-04T08:05:57.821Z,3.90
2022-09-04T08:08:52.190Z,5.40
2022-09-04T08:11:56.063Z,3.83
2022-09-04T08:14:32.969Z,3.33
2022-09-04T08:17:37.981Z,4.93
2022-09-04T08:20:17.764Z,4.55
2022-09-04T08:22:53.126Z,2.92
2022-09-04T08:25:27.801Z,4.70
2022-09-04T08:28:29.142Z,3.58
2022-09-04T08:31:04.217Z,2.85
2022-09-04T08:33:53.347Z,3.40
2022-09-04T08:36:31.133Z,4.47
2022-09-04T08:39:07.485Z,1.77
2022-09-04T08:42:15.533Z,3.33
2022-09-04T08:45:28.859Z,2.70
2022-09-04T08:48:37.285Z,3.60
2022-09-04T08:51:32.903Z,1.20
2022-09-04T08:54:32.440Z,1.35
2022-09-04T08:57:21.826Z,1.52
2022-09-04T09:00:09.516Z,1.50
2022-09-04T09:03:14.846Z,2.95
2022-09-04T09:06:40.381Z,3.38
2022-09-04T09:09:45.613Z,2.03
2022-09-04T09:12:41.751Z,1.45
2022-09-04T09:15:57.279Z,0.90
2022-09-04T09:18:40.346Z,1.08
2022-09-04T09:21:10.461Z,1.25
2022-09-04T09:23:44.480Z,1.42
2022-09-04T09:26:24.264Z,1.60
2022-09-04T09:29:18.264Z,1.17
2022-09-04T09:32:21.489Z,0.95
2022-09-04T09:35:24.298Z,1.92
2022-09-04T09:38:13.231Z,1.00
2022-09-04T09:41:03.826Z,1.08
2022-09-04T09:44:06.509Z,0.82
2022-09-04T09:47:03.935Z,1.30
2022-09-04T09:50:02.720Z,1.85
2022-09-04T09:52:58.658Z,0.65
2022-09-04T09:56:02.589Z,1.23
2022-09-04T09:59:14.947Z,1.17
2022-09-04T10:02:11.944Z,1.35
2022-09-04T10:05:20.376Z,1.23
2022-09-04T10:08:35.713Z,0.80
2022-09-04T10:11:33.736Z,2.33
2022-09-04T10:14:27.466Z,1.13
2022-09-04T10:17:27.108Z,1.30
2022-09-04T10:20:23.790Z,1.05
2022-09-04T10:23:11.171Z,0.60
2022-09-04T10:26:02.155Z,1.55
2022-09-04T10:29:21.910Z,0.57
2022-09-04T10:32:14.336Z,1.27
2022-09-04T10:34:58.686Z,0.30
2022-09-04T10:37:49.073Z,0.38
2022-09-04T10:40:26.559Z,1.17
2022-09-04T10:43:08.563Z,0.77
2022-09-04T10:45:39.043Z,0.90
2022-09-04T10:48:30.989Z,1.00
2022-09-04T10:51:29.593Z,0.50
2022-09-04T10:54:18.842Z,0.60
2022-09-04T10:56:58.603Z,1.15
2022-09-04T10:59:59.980Z,0.70
2022-09-04T11:03:09.727Z,0.47
2022-09-04T11:06:17.538Z,0.93
2022-09-04T11:09:10.823Z,0.50
2022-09-04T11:11:57.182Z,0.95
2022-09-04T11:14:46.500Z,0.85
2022-09-04T11:17:40.942Z,1.08
2022-09-04T11:20:53.071Z,2.20
2022-09-04T11:24:06.389Z,0.60
2022-09-04T11:27:14.181Z,2.15
2022-09-04T11:29:58.538Z,0.68
2022-09-04T11:32:51.705Z,1.05
2022-09-04T11:35:43.891Z,0.70
2022-09-04T11:38:39.321Z,1.45
2022-09-04T11:41:51.732Z,1.25
2022-09-04T11:44:47.565Z,0.93
2022-09-04T11:47:49.867Z,1.25
2022-09-04T11:50:41.266Z,1.88
2022-09-04T11:53:46.785Z,0.93
2022-09-04T11:56:40.889Z,0.63
2022-09-04T11:59:28.142Z,1.23
2022-09-04T12:02:18.511Z,2.33
2022-09-04T12:05:07.686Z,1.55
2022-09-04T12:07:53.152Z,1.50
2022-09-04T12:10:34.905Z,1.70
2022-09-04T12:13:16.639Z,1.33
2022-09-04T12:16:10.203Z,1.10
2022-09-04T12:19:12.179Z,2.47
2022-09-04T12:22:25.027Z,2.85
2022-09-04T12:25:14.380Z,1.20
2022-09-04T12:28:15.319Z,0.70
2022-09-04T12:30:57.518Z,0.80
2022-09-04T12:33:46.369Z,1.20
2022-09-04T12:36:32.877Z,1.30
2022-09-04T12:39:14.179Z,2.72
2022-09-04T12:41:50.020Z,0.93
2022-09-04T12:44:29.146Z,1.15
2022-09-04T12:47:07.431Z,0.93
2022-09-04T12:49:54.421Z,1.98
2022-09-04T12:52:28.662Z,2.90
2022-09-04T12:55:09.289Z,2.42
2022-09-04T13:02:50.419Z,1.15
2022-09-04T13:05:46.784Z,2.35
2022-09-04T13:08:33.214Z,1.30
2022-09-04T13:11:12.934Z,0.70
2022-09-04T13:13:48.267Z,1.80
2022-09-04T13:16:25.599Z,2.78
2022-09-04T13:19:03.801Z,0.85
2022-09-04T13:21:51.967Z,3.72
2022-09-04T13:24:30.698Z,1.40
2022-09-04T13:27:15.126Z,1.17
2022-09-04T13:29:54.500Z,1.52
2022-09-04T13:32:41.989Z,0.88
2022-09-04T13:35:19.716Z,0.68
2022-09-04T13:38:02.933Z,1.23
2022-09-04T13:40:48.563Z,1.30
2022-09-04T13:43:44.569Z,0.75
2022-09-04T13:46:17.817Z,3.55
2022-09-04T13:48:51.178Z,2.38
2022-09-04T13:51:23.099Z,2.05
2022-09-04T13:54:02.482Z,0.70
2022-09-04T13:56:33.214Z,0.70
2022-09-04T13:59:06.208Z,1.42
2022-09-04T14:01:34.450Z,1.73
2022-09-04T14:04:07.344Z,2.22
2022-09-04T14:06:36.261Z,1.02
2022-09-04T14:09:06.171Z,2.40
2022-09-04T14:11:58.494Z,0.85
2022-09-04T14:14:49.701Z,1.27
2022-09-04T14:17:18.992Z,2.95
2022-09-04T14:19:54.958Z,2.13
2022-09-04T14:22:40.331Z,1.58
2022-09-04T14:25:16.180Z,0.60
2022-09-04T14:27:55.497Z,3.00
2022-09-04T14:30:23.327Z,0.70
2022-09-04T14:33:07.492Z,2.92
2022-09-04T14:35:45.414Z,1.08
2022-09-04T14:38:37.949Z,2.45
2022-09-04T14:41:19.360Z,0.90
2022-09-04T14:43:53.410Z,2.10
2022-09-04T14:46:26.747Z,2.25
2022-09-04T14:49:02.694Z,1.90
2022-09-04T14:51:37.096Z,0.75
2022-09-04T14:54:05.652Z,1.30
2022-09-04T14:56:37.687Z,3.05
2022-09-04T14:59:19.282Z,2.50
2022-09-04T15:04:25.839Z,1.38
2022-09-04T15:07:12.376Z,0.60
2022-09-04T15:09:42.701Z,0.95
2022-09-04T15:12:24.592Z,1.05
2022-09-04T15:14:57.386Z,3.08
2022-09-04T15:17:27.541Z,1.55
2022-09-04T15:19:59.418Z,1.13
2022-09-04T15:22:35.955Z,0.60
2022-09-04T15:25:06.881Z,1.08
2022-09-04T15:27:42.921Z,0.70
2022-09-04T15:30:18.426Z,2.55
2022-09-04T15:32:47.181Z,3.53
2022-09-04T15:35:17.455Z,2.60
2022-09-04T15:37:48.579Z,1.23
2022-09-04T15:40:24.362Z,0.88
2022-09-04T15:43:01.533Z,1.83
2022-09-04T15:45:35.888Z,0.88
2022-09-04T15:48:17.564Z,3.03
2022-09-04T15:51:10.543Z,1.40
2022-09-04T15:53:44.172Z,1.80
2022-09-04T15:56:30.661Z,1.38
2022-09-04T15:59:04.650Z,1.35
2022-09-04T16:01:41.628Z,1.23
2022-09-04T16:04:20.436Z,1.08
2022-09-04T16:06:52.559Z,0.88
2022-09-04T16:09:25.998Z,0.95
2022-09-04T16:12:04.123Z,0.85
2022-09-04T16:14:39.947Z,1.05
2022-09-04T16:17:16.101Z,1.33
2022-09-04T16:19:49.481Z,2.42
2022-09-04T16:22:33.375Z,2.13
2022-09-04T16:25:08.034Z,1.70
2022-09-04T16:27:44.156Z,0.68
2022-09-04T16:30:26.049Z,1.08
2022-09-04T16:32:52.894Z,2.70
2022-09-04T16:35:22.267Z,1.30
2022-09-04T16:37:54.122Z,1.25
2022-09-04T16:40:29.288Z,1.77
2022-09-04T16:43:00.552Z,1.02
2022-09-04T16:45:33.977Z,1.38
2022-09-04T16:48:33.489Z,3.78
2022-09-04T16:53:26.909Z,0.85
2022-09-04T16:56:00.017Z,7.47
2022-09-04T16:58:37.115Z,7.53
2022-09-04T17:01:14.072Z,2.28
2022-09-04T17:03:49.475Z,6.38
2022-09-04T17:06:26.429Z,1.73
2022-09-04T17:09:03.650Z,1.67
2022-09-04T17:11:39.865Z,1.30
2022-09-04T17:14:17.669Z,6.68
2022-09-04T17:17:13.822Z,3.67
2022-09-04T17:20:02.145Z,2.47
2022-09-04T17:28:57.996Z,1.05
2022-09-04T17:29:00.617Z,4.10
2022-09-04T17:29:08.241Z,1.40
2022-09-04T17:31:33.911Z,2.25
2022-09-04T17:39:25.766Z,3.00
2022-09-04T17:40:38.228Z,1.00
2022-09-04T17:40:51.161Z,2.00
2022-09-04T17:43:15.759Z,2.63
2022-09-04T17:45:49.268Z,3.17
2022-09-04T17:48:21.798Z,1.50
2022-09-04T17:50:52.704Z,3.42
2022-09-04T17:53:34.025Z,1.95
2022-09-04T17:56:08.108Z,1.20
2022-09-04T17:58:40.407Z,1.25
2022-09-04T18:01:16.751Z,2.50
2022-09-04T18:04:12.118Z,1.20
2022-09-04T18:06:43.412Z,1.95
2022-09-04T18:09:19.892Z,1.42
2022-09-04T18:12:03.002Z,2.30
2022-09-04T18:14:38.659Z,1.52
2022-09-04T18:17:13.261Z,1.35
2022-09-04T18:19:45.278Z,1.92
2022-09-04T18:22:26.415Z,2.00
2022-09-04T18:25:15.930Z,1.17
2022-09-04T18:28:06.321Z,1.63
2022-09-04T18:35:45.445Z,8.90
2022-09-04T18:37:20.596Z,1.33
